createdAt,value
2019-03-31T00:08:01.602Z,1016.84
2019-03-31T00:18:01.566Z,1016.93
2019-03-31T00:33:01.491Z,1017.05
2019-03-31T00:38:01.476Z,1017.09
2019-03-31T00:53:01.572Z,1017.17
2019-03-31T01:00:11.626Z,1017.27
2019-03-31T01:10:01.550Z,1017.31
2019-03-31T01:15:01.504Z,1017.31
2019-03-31T01:20:01.495Z,1017.38
2019-03-31T01:30:01.680Z,1017.4
2019-03-31T01:35:01.594Z,1017.4
2019-03-31T01:40:01.475Z,1017.51
2019-03-31T01:45:01.536Z,1017.51
2019-03-31T01:50:01.461Z,1017.63
2019-03-31T01:55:01.589Z,1017.63
2019-03-31T02:00:01.519Z,1017.77
2019-03-31T02:05:01.532Z,1017.77
2019-03-31T02:10:01.480Z,1017.96
2019-03-31T02:15:01.590Z,1017.96
2019-03-31T02:20:01.471Z,1018.0
2019-03-31T02:25:01.678Z,1018.0
2019-03-31T02:30:01.619Z,1018.05
2019-03-31T02:40:01.703Z,1018.08
2019-03-31T02:45:01.545Z,1018.08
2019-03-31T02:50:01.418Z,1018.11
2019-03-31T02:55:01.678Z,1018.11
2019-03-31T03:00:01.662Z,1018.18
2019-03-31T03:10:01.605Z,1018.29
2019-03-31T03:15:01.607Z,1018.29
2019-03-31T03:20:01.450Z,1018.38
2019-03-31T03:31:01.978Z,1018.48
2019-03-31T03:46:01.473Z,1018.64
2019-03-31T03:51:01.517Z,1018.63
2019-03-31T03:56:01.720Z,1018.63
2019-03-31T04:11:01.721Z,1018.69
2019-03-31T04:16:01.620Z,1018.69
2019-03-31T04:26:01.640Z,1018.73
2019-03-31T04:36:01.799Z,1018.91
2019-03-31T04:41:01.626Z,1018.94
2019-03-31T04:46:01.634Z,1018.94
2019-03-31T04:51:01.614Z,1019.06
2019-03-31T04:56:01.618Z,1019.06
2019-03-31T05:01:01.631Z,1019.22
2019-03-31T05:11:01.642Z,1019.37
2019-03-31T05:21:01.919Z,1019.53
2019-03-31T05:36:01.630Z,1019.79
2019-03-31T05:41:01.598Z,1019.99
2019-03-31T05:56:01.645Z,1020.1
2019-03-31T06:01:01.929Z,1020.24
2019-03-31T06:16:01.743Z,1020.22
2019-03-31T06:21:01.687Z,1020.31
2019-03-31T06:31:01.659Z,1020.52
2019-03-31T06:41:01.593Z,1020.72
2019-03-31T06:46:01.632Z,1020.72
2019-03-31T06:52:01.710Z,1020.74
2019-03-31T06:57:01.647Z,1020.85
2019-03-31T07:02:03.890Z,1020.85
2019-03-31T07:07:01.643Z,1021.04
2019-03-31T07:12:01.463Z,1021.04
2019-03-31T07:17:01.492Z,1021.07
2019-03-31T07:22:01.495Z,1021.07
2019-03-31T07:32:01.313Z,1021.14
2019-03-31T07:42:02.325Z,1021.29
2019-03-31T07:47:01.486Z,1021.54
2019-03-31T07:57:01.545Z,1021.65
2019-03-31T08:07:01.627Z,1021.89
2019-03-31T08:17:01.340Z,1021.98
2019-03-31T08:27:02.647Z,1022.07
2019-03-31T08:32:01.489Z,1022.07
2019-03-31T08:42:01.622Z,1022.13
2019-03-31T08:47:01.471Z,1022.25
2019-03-31T08:52:01.555Z,1022.25
2019-03-31T08:57:01.609Z,1022.41
2019-03-31T09:02:03.577Z,1022.41
2019-03-31T09:07:01.921Z,1022.57
2019-03-31T09:12:01.474Z,1022.57
2019-03-31T09:17:01.611Z,1022.65
2019-03-31T09:32:01.348Z,1022.65
2019-03-31T09:37:01.580Z,1022.65
2019-03-31T09:42:01.505Z,1022.65
2019-03-31T09:47:01.490Z,1022.81
2019-03-31T09:52:01.493Z,1022.81
2019-03-31T09:57:01.583Z,1022.75
2019-03-31T10:07:01.554Z,1022.88
2019-03-31T10:12:01.484Z,1022.88
2019-03-31T10:17:01.523Z,1022.85
2019-03-31T10:27:01.609Z,1022.7
2019-03-31T10:32:01.481Z,1022.7
2019-03-31T10:37:01.531Z,1022.81
2019-03-31T10:42:01.488Z,1022.81
2019-03-31T10:47:01.483Z,1022.86
2019-03-31T10:57:01.509Z,1022.87
2019-03-31T11:12:01.539Z,1022.84
2019-03-31T11:17:01.529Z,1022.9
2019-03-31T11:22:01.479Z,1022.9
2019-03-31T11:27:01.719Z,1023.03
2019-03-31T11:32:01.476Z,1023.03
2019-03-31T11:37:14.087Z,1023.04
2019-03-31T11:42:01.477Z,1023.04
2019-03-31T11:47:01.469Z,1023.1600000000001
2019-03-31T11:57:01.537Z,1023.1400000000001
2019-03-31T12:07:01.697Z,1023.02
2019-03-31T12:12:01.541Z,1023.02
2019-03-31T12:17:01.479Z,1023.0
2019-03-31T12:32:01.324Z,1023.1300000000001
2019-03-31T12:37:01.679Z,1023.1199999999999
2019-03-31T12:52:01.475Z,1023.1300000000001
2019-03-31T12:57:01.560Z,1023.2
2019-03-31T13:12:01.694Z,1023.21
2019-03-31T13:17:01.957Z,1023.3
2019-03-31T13:27:01.554Z,1023.31
2019-03-31T13:32:01.509Z,1023.31
2019-03-31T13:37:01.574Z,1023.1600000000001
2019-03-31T13:42:01.467Z,1023.1600000000001
2019-03-31T13:47:01.475Z,1023.1700000000001
2019-03-31T13:57:02.355Z,1023.2
2019-03-31T14:02:01.486Z,1023.2
2019-03-31T14:07:04.680Z,1023.24
2019-03-31T14:12:01.475Z,1023.24
2019-03-31T14:22:01.583Z,1023.1300000000001
2019-03-31T14:27:01.519Z,1023.0899999999999
2019-03-31T14:32:01.522Z,1023.0899999999999
2019-03-31T14:37:01.788Z,1023.1199999999999
2019-03-31T14:42:01.514Z,1023.1199999999999
2019-03-31T14:47:01.508Z,1023.1400000000001
2019-03-31T14:52:01.901Z,1023.1400000000001
2019-03-31T15:02:01.324Z,1023.23
2019-03-31T15:07:01.607Z,1023.22
2019-03-31T15:13:01.518Z,1023.22
2019-03-31T15:18:01.469Z,1023.3
2019-03-31T15:23:01.599Z,1023.3
2019-03-31T15:38:01.604Z,1023.3299999999999
2019-03-31T15:43:01.692Z,1023.3299999999999
2019-03-31T15:54:01.619Z,1023.3299999999999
2019-03-31T15:59:01.629Z,1023.45
2019-03-31T16:14:01.692Z,1023.46
2019-03-31T16:19:01.666Z,1023.5699999999999
2019-03-31T16:24:01.684Z,1023.5699999999999
2019-03-31T16:29:01.791Z,1023.5899999999999
2019-03-31T16:34:01.673Z,1023.5899999999999
2019-03-31T16:39:01.929Z,1023.6099999999999
2019-03-31T16:44:01.603Z,1023.6099999999999
2019-03-31T16:49:01.626Z,1023.6600000000001
2019-03-31T16:54:01.614Z,1023.6600000000001
2019-03-31T16:59:01.686Z,1023.7
2019-03-31T17:04:01.624Z,1023.7
2019-03-31T17:09:01.636Z,1023.8
2019-03-31T17:14:01.649Z,1023.8
2019-03-31T17:19:01.711Z,1023.9000000000001
2019-03-31T17:29:01.617Z,1023.98
2019-03-31T17:34:01.718Z,1023.98
2019-03-31T17:39:01.644Z,1024.02
2019-03-31T17:44:01.616Z,1024.02
2019-03-31T17:49:01.739Z,1024.06
2019-03-31T17:54:01.639Z,1024.06
2019-03-31T17:59:01.703Z,1024.15
2019-03-31T18:04:01.628Z,1024.15
2019-03-31T18:09:01.406Z,1024.32
2019-03-31T18:14:01.615Z,1024.32
2019-03-31T18:19:01.607Z,1024.37
2019-03-31T18:24:01.620Z,1024.37
2019-03-31T18:29:01.620Z,1024.48
2019-03-31T18:34:01.617Z,1024.48
2019-03-31T18:39:01.774Z,1024.58
2019-03-31T18:44:01.641Z,1024.58
2019-03-31T18:49:01.612Z,1024.72
2019-03-31T18:54:01.605Z,1024.72
2019-03-31T18:59:01.621Z,1024.78
2019-03-31T19:04:01.548Z,1024.78
2019-03-31T19:09:01.453Z,1024.95
2019-03-31T19:14:01.614Z,1024.95
2019-03-31T19:19:01.441Z,1025.05
2019-03-31T19:24:01.535Z,1025.05
2019-03-31T19:29:01.522Z,1025.09
2019-03-31T19:39:01.734Z,1025.13
2019-03-31T19:49:01.607Z,1025.32
2019-03-31T19:54:01.593Z,1025.32
2019-03-31T19:59:01.540Z,1025.42
2019-03-31T20:04:01.671Z,1025.42
2019-03-31T20:10:01.448Z,1025.53
2019-03-31T20:15:01.537Z,1025.53
2019-03-31T20:20:01.459Z,1025.74
2019-03-31T20:25:01.518Z,1025.74
2019-03-31T20:30:01.466Z,1025.83
2019-03-31T20:35:01.669Z,1025.83
2019-03-31T20:40:01.622Z,1025.79
2019-03-31T20:45:01.525Z,1025.79
2019-03-31T20:50:01.467Z,1025.79
2019-03-31T20:55:16.866Z,1025.79
2019-03-31T21:00:01.537Z,1025.91
2019-03-31T21:05:01.521Z,1025.91
2019-03-31T21:10:01.477Z,1025.92
2019-03-31T21:15:01.558Z,1025.92
2019-03-31T21:20:01.466Z,1026.01
2019-03-31T21:30:01.619Z,1026.06
2019-03-31T21:35:01.609Z,1026.06
2019-03-31T21:45:01.718Z,1026.2
2019-03-31T21:50:01.477Z,1026.19
2019-03-31T22:00:01.637Z,1026.34
2019-03-31T22:10:01.552Z,1026.3
2019-03-31T22:15:01.530Z,1026.3
2019-03-31T22:30:01.551Z,1026.32
2019-03-31T22:45:01.556Z,1026.35
2019-03-31T22:55:01.556Z,1026.45
2019-03-31T23:00:01.537Z,1026.48
2019-03-31T23:05:01.563Z,1026.48
2019-03-31T23:15:01.507Z,1026.43
2019-03-31T23:20:01.464Z,1026.37
2019-03-31T23:25:02.678Z,1026.37
2019-03-31T23:30:01.558Z,1026.37
2019-03-31T23:35:01.524Z,1026.37
2019-03-31T23:40:01.491Z,1026.4
2019-03-31T23:45:01.615Z,1026.4
2019-03-31T23:55:01.488Z,1026.37
